Dartmouth, Canada
Current Conditions -  °F | °C
As of 5:09 PM on Friday 24 Oct 2014 (Local Time) from CYHZ Reporting Station
Rain Showers Rain Showers  
Wind Chill: 59°   Ceiling: 200
Heat Index: 59°   Visibility: 1.2mi
Dew Point: 59°   Wind: 9mph
Humidity: 100%   Direction: 10°N
Pressure: 29.43"   Gusts: NA
Location:  44.67°N, 63.58°W
Report Text: CYHZ 242009Z 01008KT 1 1/4SM R14/2800VP6000FT/D +SHRA BR BKN002 OVC016 15/15 A2943 RMK ST6SC2 SLP968 DENSITY ALT 1100FT
Loading
Personal Weather Stations






























Interactive Weather Map
Tropical Storm Tracking
New forecast layout! Learn more

10-Day Weather Forecast

Advertisements
Track Severe Weather on mobile